Time;durP1;ratioP1;P1;durP2;ratioP2;P2;SDS_P1;SDS_P2;PMS_P1;PMS_P2;Temp;Humidity;BMP_temperature;BMP_pressure;BME280_temperature;BME280_humidity;BME280_pressure;Samples;Min_cycle;Max_cycle;Signal;HPM_P1;HPM_P2
2022/02/08 00:00:33;;;;;;;4.68;1.80;;;;;;;;;;5012652;28;20528;-76
2022/02/08 00:03:02;;;;;;;4.47;1.73;;;;;;;;;;5012141;28;20524;-77
2022/02/08 00:05:29;;;;;;;4.95;2.10;;;;;;;;;;5012501;28;20056;-76
2022/02/08 00:07:56;;;;;;;6.80;2.20;;;;;;;;;;5013283;28;20046;-76
2022/02/08 00:10:27;;;;;;;5.93;2.08;;;;;;;;;;4997870;28;20078;-76
2022/02/08 00:12:54;;;;;;;;;;;;;;;;;;4998451;28;20138;-77
2022/02/08 00:15:21;;;;;;;4.55;1.95;;;;;;;;;;4998445;28;19921;-76
2022/02/08 00:17:48;;;;;;;5.05;1.90;;;;;;;;;;4997744;28;20062;-76
2022/02/08 00:20:15;;;;;;;6.75;2.17;;;;;;;;;;4997081;28;20050;-76
2022/02/08 00:22:42;;;;;;;5.10;1.98;;;;;;;;;;5007991;28;20058;-77
2022/02/08 00:25:09;;;;;;;8.43;2.20;;;;;;;;;;5011706;28;20054;-74
2022/02/08 00:27:37;;;;;;;7.07;2.50;;;;;;;;;;5023022;28;20046;-75
2022/02/08 00:30:05;;;;;;;9.80;2.50;;;;;;;;;;5020304;28;20061;-77
2022/02/08 00:32:32;;;;;;;8.75;2.10;;;;;;;;;;5016809;28;20053;-77
2022/02/08 00:34:59;;;;;;;9.57;2.33;;;;;;;;;;5016083;28;20053;-77
2022/02/08 00:37:26;;;;;;;6.68;2.72;;;;;;;;;;5015070;28;20049;-77
2022/02/08 00:39:53;;;;;;;5.72;2.60;;;;;;;;;;5017022;28;20058;-77
2022/02/08 00:42:22;;;;;;;7.60;2.50;;;;;;;;;;5017076;28;20124;-78
2022/02/08 00:44:56;;;;;;;5.50;2.15;;;;;;;;;;5017481;28;20081;-77
2022/02/08 00:47:30;;;;;;;6.50;2.10;;;;;;;;;;5016840;28;20056;-77
2022/02/08 00:50:05;;;;;;;6.90;1.90;;;;;;;;;;5018111;28;20054;-77
2022/02/08 00:52:32;;;;;;;9.20;2.35;;;;;;;;;;5016231;28;20076;-76
2022/02/08 00:54:59;;;;;;;4.82;2.13;;;;;;;;;;5015634;28;20500;-77
2022/02/08 00:57:26;;;;;;;6.68;1.80;;;;;;;;;;5015841;28;20061;-78
2022/02/08 00:59:58;;;;;;;4.85;2.53;;;;;;;;;;5016341;28;20054;-78
2022/02/08 01:02:25;;;;;;;7.68;2.25;;;;;;;;;;5016884;28;20104;-76
2022/02/08 01:04:56;;;;;;;6.65;2.40;;;;;;;;;;5016761;28;20050;-76
2022/02/08 01:07:23;;;;;;;5.13;2.00;;;;;;;;;;5015452;28;20064;-77
2022/02/08 01:09:54;;;;;;;5.45;1.90;;;;;;;;;;5016711;28;20065;-77
2022/02/08 01:12:21;;;;;;;;;;;;;;;;;;5015494;28;20072;-77
2022/02/08 01:14:50;;;;;;;4.88;1.85;;;;;;;;;;5014609;28;20020;-77
2022/02/08 01:17:21;;;;;;;5.63;1.95;;;;;;;;;;5013364;28;20145;-77
2022/02/08 01:19:52;;;;;;;9.38;2.25;;;;;;;;;;5014832;28;20057;-77
2022/02/08 01:22:19;;;;;;;6.75;2.15;;;;;;;;;;5014752;28;20080;-77
2022/02/08 01:24:47;;;;;;;5.15;2.40;;;;;;;;;;5014651;28;20042;-77
2022/02/08 01:27:15;;;;;;;3.95;1.80;;;;;;;;;;5014546;28;20058;-77
2022/02/08 01:29:54;;;;;;;5.25;2.05;;;;;;;;;;5014642;28;20049;-77
2022/02/08 01:32:47;;;;;;;5.28;1.80;;;;;;;;;;5014434;28;20050;-77
2022/02/08 01:35:27;;;;;;;5.60;1.92;;;;;;;;;;5016827;28;20046;-77
2022/02/08 01:37:59;;;;;;;6.07;2.40;;;;;;;;;;5017864;28;20064;-78
2022/02/08 01:40:32;;;;;;;8.10;2.67;;;;;;;;;;5033206;28;20033;-74
2022/02/08 01:43:35;;;;;;;5.60;1.98;;;;;;;;;;5039811;28;20030;-73
2022/02/08 01:46:08;;;;;;;4.18;1.85;;;;;;;;;;5039206;28;20060;-75
2022/02/08 01:48:42;;;;;;;3.63;2.10;;;;;;;;;;5029420;28;20042;-77
2022/02/08 01:51:09;;;;;;;5.38;2.05;;;;;;;;;;5014486;28;20050;-76
2022/02/08 01:53:36;;;;;;;7.53;2.30;;;;;;;;;;5014351;28;20523;-77
2022/02/08 01:56:04;;;;;;;7.07;2.40;;;;;;;;;;5037996;22;20037;-75
2022/02/08 01:58:31;;;;;;;6.47;3.03;;;;;;;;;;5077974;28;20060;-77
2022/02/08 02:00:57;;;;;;;6.57;3.08;;;;;;;;;;5061966;28;20048;-77
2022/02/08 02:03:24;;;;;;;7.97;3.03;;;;;;;;;;5056521;28;20644;-78
2022/02/08 02:05:55;;;;;;;9.77;3.05;;;;;;;;;;5054217;28;20053;-77
2022/02/08 02:08:22;;;;;;;5.60;2.65;;;;;;;;;;5054420;28;20049;-79
2022/02/08 02:10:48;;;;;;;6.28;2.25;;;;;;;;;;5053580;28;20056;-77
2022/02/08 02:13:29;;;;;;;5.45;2.10;;;;;;;;;;5056219;28;20048;-77
2022/02/08 02:15:56;;;;;;;5.80;2.45;;;;;;;;;;5058429;28;20057;-77
2022/02/08 02:18:23;;;;;;;6.22;2.53;;;;;;;;;;5058418;28;20108;-77
2022/02/08 02:20:50;;;;;;;6.88;2.20;;;;;;;;;;5060243;28;20045;-76
2022/02/08 02:23:18;;;;;;;7.93;2.53;;;;;;;;;;5054042;28;20110;-76
2022/02/08 02:25:46;;;;;;;5.50;2.25;;;;;;;;;;5053444;28;20053;-76
2022/02/08 02:28:13;;;;;;;8.85;2.15;;;;;;;;;;5053502;28;20071;-79
2022/02/08 02:30:40;;;;;;;6.40;2.40;;;;;;;;;;5054122;28;20045;-78
2022/02/08 02:33:08;;;;;;;4.15;1.83;;;;;;;;;;5054458;28;20049;-79
2022/02/08 02:35:37;;;;;;;7.50;2.20;;;;;;;;;;5055611;28;20049;-79
2022/02/08 02:38:04;;;;;;;10.30;2.38;;;;;;;;;;5056233;28;20045;-78
2022/02/08 02:40:31;;;;;;;5.75;2.00;;;;;;;;;;5056705;28;20488;-79
2022/02/08 02:43:00;;;;;;;4.15;1.65;;;;;;;;;;5056035;28;20049;-76
2022/02/08 02:45:27;;;;;;;4.50;1.73;;;;;;;;;;5055286;28;20045;-77
2022/02/08 02:47:56;;;;;;;6.22;2.03;;;;;;;;;;5054448;28;20049;-77
2022/02/08 02:50:24;;;;;;;5.18;1.63;;;;;;;;;;5056827;28;20051;-77
2022/02/08 02:52:51;;;;;;;6.65;1.67;;;;;;;;;;5054530;28;20056;-76
2022/02/08 02:55:18;;;;;;;4.57;1.75;;;;;;;;;;5054196;28;20049;-78
2022/02/08 02:57:47;;;;;;;4.78;1.63;;;;;;;;;;5053414;28;20530;-76
2022/02/08 03:00:30;;;;;;;4.57;1.50;;;;;;;;;;5054248;28;20478;-78
2022/02/08 03:03:07;;;;;;;7.57;2.03;;;;;;;;;;5054034;28;20052;-77
2022/02/08 03:05:50;;;;;;;5.55;1.40;;;;;;;;;;5054388;28;20045;-77
2022/02/08 03:19:21;;;;;;;5.85;1.63;;;;;;;;;;5055596;28;20106;-77
2022/02/08 03:21:48;;;;;;;6.07;1.73;;;;;;;;;;5058482;28;20053;-77
2022/02/08 03:24:15;;;;;;;5.53;1.70;;;;;;;;;;5057145;28;20071;-77
2022/02/08 03:26:41;;;;;;;6.40;1.35;;;;;;;;;;5053455;28;20057;-76
2022/02/08 03:29:08;;;;;;;4.57;1.80;;;;;;;;;;5053883;28;20127;-77
2022/02/08 03:31:37;;;;;;;6.05;1.80;;;;;;;;;;5053647;28;20053;-77
2022/02/08 03:34:04;;;;;;;3.38;1.38;;;;;;;;;;5054257;28;20057;-78
2022/02/08 03:36:31;;;;;;;6.43;2.00;;;;;;;;;;5053593;28;20064;-77
2022/02/08 03:39:12;;;;;;;3.55;1.27;;;;;;;;;;5053772;28;20103;-76
2022/02/08 03:41:43;;;;;;;4.30;1.80;;;;;;;;;;5053567;28;20044;-77
2022/02/08 03:44:16;;;;;;;5.15;1.52;;;;;;;;;;5054498;28;20049;-77
2022/02/08 03:46:44;;;;;;;4.68;1.38;;;;;;;;;;5054998;28;20095;-77
2022/02/08 03:49:12;;;;;;;3.47;1.45;;;;;;;;;;5054706;28;20415;-78
2022/02/08 03:51:49;;;;;;;3.22;1.23;;;;;;;;;;5054865;28;20045;-77
2022/02/08 03:54:20;;;;;;;3.60;1.42;;;;;;;;;;5057012;28;20072;-77
2022/02/08 03:56:47;;;;;;;4.60;1.38;;;;;;;;;;5064834;28;20119;-77
2022/02/08 03:59:15;;;;;;;3.75;1.20;;;;;;;;;;5056719;28;20053;-78
2022/02/08 04:04:48;;;;;;;4.05;1.63;;;;;;;;;;5054954;28;20090;-78
2022/02/08 04:07:19;;;;;;;3.78;1.40;;;;;;;;;;5051718;28;20091;-77
2022/02/08 04:09:59;;;;;;;3.05;1.30;;;;;;;;;;5053355;28;20446;-78
2022/02/08 04:12:36;;;;;;;5.18;1.20;;;;;;;;;;5055814;28;20101;-76
2022/02/08 04:15:20;;;;;;;4.75;1.20;;;;;;;;;;5056640;28;20495;-77
2022/02/08 04:18:18;;;;;;;2.45;1.30;;;;;;;;;;5056595;28;20052;-76
2022/02/08 04:32:14;;;;;;;6.63;1.70;;;;;;;;;;5051624;28;20064;-77
2022/02/08 04:34:51;;;;;;;5.78;1.70;;;;;;;;;;5051296;28;20127;-77
2022/02/08 04:40:15;;;;;;;7.18;1.40;;;;;;;;;;5046144;28;20499;-76
2022/02/08 04:42:49;;;;;;;5.53;1.70;;;;;;;;;;5075644;28;20052;-77
2022/02/08 04:45:25;;;;;;;5.30;1.23;;;;;;;;;;5063291;28;20455;-77
2022/02/08 04:48:04;;;;;;;4.28;1.30;;;;;;;;;;5053929;28;20052;-77
2022/02/08 04:50:34;;;;;;;5.97;1.33;;;;;;;;;;5051984;28;20053;-76
2022/02/08 04:53:07;;;;;;;2.20;1.13;;;;;;;;;;5052571;28;20140;-78
2022/02/08 04:55:42;;;;;;;5.95;1.55;;;;;;;;;;5054614;28;20056;-77
2022/02/08 04:58:21;;;;;;;7.80;1.80;;;;;;;;;;5055325;28;20091;-77
2022/02/08 05:01:01;;;;;;;6.45;1.50;;;;;;;;;;5056545;28;20148;-78
2022/02/08 05:36:53;;;;;;;3.90;1.17;;;;;;;;;;5058207;28;20070;-78
2022/02/08 05:42:20;;;;;;;6.30;1.23;;;;;;;;;;5036656;28;20517;-76
2022/02/08 05:44:54;;;;;;;6.43;1.40;;;;;;;;;;5056325;28;20143;-77
2022/02/08 05:47:21;;;;;;;4.45;1.30;;;;;;;;;;5055925;28;20056;-77
2022/02/08 05:50:02;;;;;;;2.50;0.95;;;;;;;;;;5054036;28;20504;-77
2022/02/08 05:52:50;;;;;;;3.45;1.58;;;;;;;;;;5058619;28;20503;-78
2022/02/08 05:55:19;;;;;;;4.85;1.65;;;;;;;;;;5056280;28;20045;-77
2022/02/08 05:57:45;;;;;;;4.63;1.30;;;;;;;;;;5056037;28;20056;-77
2022/02/08 06:00:14;;;;;;;4.38;1.40;;;;;;;;;;5055899;28;20049;-78
2022/02/08 06:02:40;;;;;;;4.47;1.63;;;;;;;;;;5056144;28;20518;-77
2022/02/08 06:05:13;;;;;;;4.78;1.55;;;;;;;;;;5056007;28;20049;-77
2022/02/08 06:07:40;;;;;;;6.68;1.42;;;;;;;;;;5056438;28;20061;-77
2022/02/08 06:10:07;;;;;;;6.85;1.63;;;;;;;;;;5057443;28;20052;-77
2022/02/08 06:12:44;;;;;;;7.05;1.10;;;;;;;;;;5056158;28;20049;-78
2022/02/08 06:15:14;;;;;;;7.03;1.98;;;;;;;;;;5056033;28;20048;-78
2022/02/08 06:17:41;;;;;;;4.80;1.58;;;;;;;;;;5056702;28;20084;-79
2022/02/08 06:20:08;;;;;;;5.57;1.38;;;;;;;;;;5057396;28;20056;-77
2022/02/08 06:22:36;;;;;;;5.65;1.48;;;;;;;;;;5053174;28;20420;-76
2022/02/08 06:25:03;;;;;;;3.72;1.45;;;;;;;;;;5053126;28;20052;-77
2022/02/08 06:27:31;;;;;;;6.93;1.60;;;;;;;;;;5053014;28;20415;-77
2022/02/08 06:30:00;;;;;;;5.60;1.70;;;;;;;;;;5053898;28;20097;-79
2022/02/08 06:32:28;;;;;;;6.25;1.77;;;;;;;;;;5057853;28;20060;-78
2022/02/08 06:34:56;;;;;;;4.95;1.38;;;;;;;;;;5053536;28;20067;-77
2022/02/08 06:37:25;;;;;;;8.43;1.60;;;;;;;;;;5052393;28;20475;-77
2022/02/08 06:39:52;;;;;;;6.65;1.65;;;;;;;;;;5053030;28;20057;-77
2022/02/08 06:42:18;;;;;;;3.67;1.00;;;;;;;;;;5056675;28;20075;-77
2022/02/08 06:44:45;;;;;;;5.85;1.40;;;;;;;;;;5056431;28;20052;-78
2022/02/08 06:47:15;;;;;;;7.50;1.70;;;;;;;;;;5057371;28;20468;-78
2022/02/08 06:49:41;;;;;;;4.95;1.42;;;;;;;;;;5059366;28;20053;-78
2022/02/08 06:52:08;;;;;;;5.50;1.30;;;;;;;;;;5056898;28;20045;-77
2022/02/08 06:54:35;;;;;;;7.00;1.40;;;;;;;;;;5057089;28;20056;-77
2022/02/08 06:57:03;;;;;;;7.25;1.52;;;;;;;;;;5057427;28;20490;-79
2022/02/08 06:59:36;;;;;;;3.60;1.17;;;;;;;;;;5059410;28;20056;-78
2022/02/08 07:02:03;;;;;;;5.07;1.10;;;;;;;;;;5056817;28;20049;-78
2022/02/08 07:04:31;;;;;;;5.63;1.48;;;;;;;;;;5056879;28;20060;-78
2022/02/08 07:06:58;;;;;;;6.45;1.25;;;;;;;;;;5057210;28;20045;-79
2022/02/08 07:09:25;;;;;;;4.60;1.50;;;;;;;;;;5057302;28;20041;-78
2022/02/08 07:11:56;;;;;;;5.55;1.48;;;;;;;;;;5056761;28;20049;-78
2022/02/08 07:14:28;;;;;;;8.65;1.55;;;;;;;;;;5057648;28;20459;-79
2022/02/08 07:16:55;;;;;;;4.28;1.70;;;;;;;;;;5056626;28;20059;-79
2022/02/08 07:19:21;;;;;;;4.47;1.30;;;;;;;;;;5056973;28;20052;-79
2022/02/08 07:21:50;;;;;;;5.25;1.35;;;;;;;;;;5059553;28;20049;-76
2022/02/08 07:24:18;;;;;;;4.80;1.40;;;;;;;;;;5056883;28;20057;-77
2022/02/08 07:26:46;;;;;;;5.57;1.30;;;;;;;;;;5069734;28;20029;-77
2022/02/08 07:29:13;;;;;;;4.30;1.42;;;;;;;;;;5074841;28;20059;-77
2022/02/08 07:31:48;;;;;;;8.65;2.42;;;;;;;;;;5059333;28;20060;-77
2022/02/08 07:34:20;;;;;;;5.53;1.60;;;;;;;;;;5057804;28;20045;-78
2022/02/08 07:36:53;;;;;;;5.65;1.40;;;;;;;;;;5058349;28;20045;-78
2022/02/08 07:39:27;;;;;;;6.38;1.50;;;;;;;;;;5054045;28;20049;-78
2022/02/08 07:41:53;;;;;;;4.80;1.52;;;;;;;;;;5054644;28;20053;-76
2022/02/08 07:44:21;;;;;;;4.55;1.00;;;;;;;;;;5053541;28;20110;-80
2022/02/08 07:46:48;;;;;;;10.35;2.03;;;;;;;;;;5053734;28;20052;-76
2022/02/08 07:49:15;;;;;;;7.90;1.65;;;;;;;;;;5057251;28;20053;-76
2022/02/08 07:51:43;;;;;;;6.28;1.13;;;;;;;;;;5059821;28;20049;-77
2022/02/08 07:54:11;;;;;;;5.68;1.70;;;;;;;;;;5069796;28;20045;-76
2022/02/08 07:56:39;;;;;;;5.05;1.42;;;;;;;;;;5050571;28;20125;-77
2022/02/08 07:59:07;;;;;;;6.55;1.55;;;;;;;;;;5052671;22;20367;-69
2022/02/08 08:01:34;;;;;;;5.18;1.40;;;;;;;;;;5020079;28;20136;-69
2022/02/08 08:04:01;;;;;;;4.90;1.42;;;;;;;;;;5026733;28;20129;-69
2022/02/08 08:06:28;;;;;;;6.40;1.35;;;;;;;;;;5028960;28;20045;-72
2022/02/08 08:08:56;;;;;;;4.82;1.25;;;;;;;;;;5004449;28;20465;-69
2022/02/08 08:11:23;;;;;;;9.45;1.63;;;;;;;;;;5009852;28;20053;-69
2022/02/08 08:14:00;;;;;;;3.85;1.58;;;;;;;;;;5010006;28;20056;-66
2022/02/08 08:16:40;;;;;;;4.15;1.20;;;;;;;;;;5009898;28;20054;-70
2022/02/08 08:19:20;;;;;;;5.00;1.30;;;;;;;;;;5009774;28;20053;-68
2022/02/08 08:21:48;;;;;;;5.45;1.38;;;;;;;;;;5009890;28;20568;-67
2022/02/08 08:24:15;;;;;;;4.30;1.48;;;;;;;;;;5010024;28;20061;-70
2022/02/08 08:26:43;;;;;;;5.38;1.42;;;;;;;;;;5010524;28;20482;-68
2022/02/08 08:29:11;;;;;;;6.53;1.30;;;;;;;;;;5013639;28;20056;-68
2022/02/08 08:31:38;;;;;;;5.35;1.65;;;;;;;;;;5012492;28;20050;-68
2022/02/08 08:34:05;;;;;;;8.27;1.67;;;;;;;;;;5013122;28;20622;-68
2022/02/08 08:36:32;;;;;;;4.13;1.10;;;;;;;;;;5013010;28;20162;-72
2022/02/08 08:38:59;;;;;;;4.85;1.30;;;;;;;;;;5013497;28;20077;-68
2022/02/08 08:41:32;;;;;;;5.15;1.48;;;;;;;;;;5013708;28;20157;-68
2022/02/08 08:49:51;;;;;;;8.27;2.85;;;;;;;;;;5013160;28;20057;-69
2022/02/08 08:52:28;;;;;;;8.15;2.30;;;;;;;;;;5013122;28;20049;-69
2022/02/08 08:54:55;;;;;;;5.07;1.20;;;;;;;;;;5013235;28;20139;-69
2022/02/08 08:57:21;;;;;;;2.65;0.90;;;;;;;;;;5012797;28;20041;-69
2022/02/08 08:59:48;;;;;;;7.10;2.10;;;;;;;;;;5013299;28;20054;-68
2022/02/08 09:02:17;;;;;;;3.60;1.00;;;;;;;;;;5013294;28;20060;-68
2022/02/08 09:04:44;;;;;;;4.50;1.42;;;;;;;;;;5013106;28;20049;-68
2022/02/08 09:07:11;;;;;;;3.42;1.30;;;;;;;;;;5012990;28;20123;-69
2022/02/08 09:09:42;;;;;;;4.40;1.23;;;;;;;;;;5013722;28;20053;-68
2022/02/08 09:12:21;;;;;;;4.80;1.17;;;;;;;;;;5012467;28;20076;-68
2022/02/08 09:15:23;;;;;;;5.07;1.55;;;;;;;;;;5013248;28;20062;-70
2022/02/08 09:18:16;;;;;;;4.53;1.38;;;;;;;;;;5012740;28;20060;-69
2022/02/08 09:26:14;;;;;;;4.38;1.50;;;;;;;;;;5011627;28;20089;-69
2022/02/08 09:28:51;;;;;;;5.35;1.27;;;;;;;;;;5012962;28;20053;-70
2022/02/08 09:31:19;;;;;;;3.60;1.13;;;;;;;;;;5012838;28;20053;-69
2022/02/08 09:33:48;;;;;;;3.17;0.77;;;;;;;;;;5012637;28;20056;-69
2022/02/08 09:36:16;;;;;;;7.93;1.40;;;;;;;;;;5012529;28;20072;-69
2022/02/08 09:38:43;;;;;;;5.82;1.20;;;;;;;;;;5011233;28;20057;-69
2022/02/08 09:41:11;;;;;;;5.85;1.73;;;;;;;;;;5012290;28;20056;-68
2022/02/08 09:43:40;;;;;;;6.47;1.50;;;;;;;;;;5012675;28;20499;-69
2022/02/08 09:46:09;;;;;;;4.15;1.40;;;;;;;;;;5012534;28;20427;-70
2022/02/08 09:48:42;;;;;;;7.82;1.60;;;;;;;;;;5012276;28;20050;-69
2022/02/08 09:51:12;;;;;;;5.07;1.13;;;;;;;;;;5012340;28;20061;-68
2022/02/08 09:53:41;;;;;;;2.33;0.90;;;;;;;;;;5012489;28;20084;-68
2022/02/08 09:56:09;;;;;;;3.60;0.95;;;;;;;;;;5028608;28;20061;-70
2022/02/08 09:58:36;;;;;;;4.68;1.17;;;;;;;;;;5030950;28;20464;-70
2022/02/08 10:01:06;;;;;;;5.53;1.33;;;;;;;;;;5031927;28;20049;-69
2022/02/08 10:03:34;;;;;;;3.22;1.05;;;;;;;;;;5026383;28;20041;-69
2022/02/08 10:06:01;;;;;;;3.95;1.02;;;;;;;;;;5021445;28;20053;-69
2022/02/08 10:08:30;;;;;;;3.88;1.20;;;;;;;;;;5012814;28;20060;-69
2022/02/08 10:10:59;;;;;;;3.85;1.10;;;;;;;;;;5012088;28;20128;-72
2022/02/08 10:13:56;;;;;;;6.75;1.30;;;;;;;;;;5012853;28;20061;-70
2022/02/08 10:22:05;;;;;;;2.75;1.10;;;;;;;;;;4997394;28;20104;-68
2022/02/08 10:24:36;;;;;;;3.60;1.10;;;;;;;;;;5011915;28;20502;-69
2022/02/08 10:27:14;;;;;;;4.60;1.25;;;;;;;;;;5011569;28;20046;-69
2022/02/08 10:29:56;;;;;;;3.15;1.63;;;;;;;;;;5011697;28;20139;-69
2022/02/08 10:38:00;;;;;;;2.28;0.85;;;;;;;;;;5010922;28;20048;-68
2022/02/08 10:40:35;;;;;;;3.63;1.15;;;;;;;;;;5009878;28;20061;-68
2022/02/08 10:43:04;;;;;;;3.63;1.10;;;;;;;;;;5011313;28;20056;-69
2022/02/08 10:45:33;;;;;;;6.78;1.50;;;;;;;;;;5011123;28;20111;-68
2022/02/08 10:48:03;;;;;;;3.40;1.23;;;;;;;;;;5010671;28;20050;-70
2022/02/08 10:50:32;;;;;;;2.10;1.00;;;;;;;;;;5011405;28;20093;-69
2022/02/08 10:53:00;;;;;;;3.75;1.10;;;;;;;;;;5011709;28;20521;-69
2022/02/08 10:55:39;;;;;;;3.85;0.90;;;;;;;;;;5011442;28;20144;-69
2022/02/08 10:58:16;;;;;;;4.13;1.10;;;;;;;;;;5010715;28;20454;-69
2022/02/08 11:00:48;;;;;;;7.68;1.45;;;;;;;;;;5013405;28;20054;-69
2022/02/08 11:03:19;;;;;;;5.13;1.10;;;;;;;;;;5011303;28;20050;-69
2022/02/08 11:06:01;;;;;;;4.63;1.10;;;;;;;;;;5010925;28;20223;-68
2022/02/08 11:08:40;;;;;;;3.53;1.00;;;;;;;;;;5010367;28;20077;-69
2022/02/08 11:11:39;;;;;;;4.15;1.33;;;;;;;;;;5010835;28;20050;-69
2022/02/08 11:19:57;;;;;;;2.30;0.82;;;;;;;;;;5011442;28;20137;-69
2022/02/08 11:22:32;;;;;;;3.38;1.00;;;;;;;;;;4993966;28;20046;-71
2022/02/08 11:25:09;;;;;;;5.78;1.02;;;;;;;;;;5011735;28;20049;-74
2022/02/08 11:27:42;;;;;;;2.70;1.02;;;;;;;;;;5010547;28;20057;-69
2022/02/08 11:30:15;;;;;;;2.83;0.90;;;;;;;;;;5011933;28;20050;-70
2022/02/08 11:32:55;;;;;;;4.90;1.35;;;;;;;;;;5011971;28;20057;-69
2022/02/08 11:44:11;;;;;;;7.22;1.80;;;;;;;;;;5016547;28;20080;-69
2022/02/08 11:46:56;;;;;;;9.15;1.50;;;;;;;;;;5017623;28;20116;-69
2022/02/08 11:49:35;;;;;;;6.47;1.20;;;;;;;;;;5018463;28;20081;-69
2022/02/08 12:00:39;;;;;;;3.08;1.10;;;;;;;;;;5012129;28;20085;-68
2022/02/08 12:06:12;;;;;;;3.08;0.90;;;;;;;;;;5015670;28;20415;-69
2022/02/08 12:08:43;;;;;;;4.80;0.95;;;;;;;;;;5015532;28;20054;-69
2022/02/08 12:11:23;;;;;;;3.45;1.10;;;;;;;;;;5014461;28;20144;-68
2022/02/08 12:26:57;;;;;;;4.55;1.10;;;;;;;;;;5023772;28;20121;-69
2022/02/08 12:28:39;;;;;;;7.15;1.23;;;;;;;;;;5033070;28;20060;-69
2022/02/08 12:33:58;;;;;;;2.40;1.00;;;;;;;;;;5013707;28;20096;-69
2022/02/08 12:36:44;;;;;;;3.63;1.02;;;;;;;;;;5013173;28;20125;-69
2022/02/08 12:51:09;;;;;;;7.70;3.08;;;;;;;;;;5012750;28;20133;-69
2022/02/08 12:56:15;;;;;;;2.80;0.80;;;;;;;;;;5011297;28;20384;-69
2022/02/08 12:59:05;;;;;;;5.07;0.80;;;;;;;;;;5013046;28;20049;-68
2022/02/08 13:04:31;;;;;;;1.70;0.65;;;;;;;;;;5012421;28;20065;-68
2022/02/08 13:19:08;;;;;;;3.35;1.00;;;;;;;;;;5012309;28;20136;-69
2022/02/08 14:03:05;;;;;;;4.20;1.10;;;;;;;;;;5011430;28;20181;-68
2022/02/08 14:08:34;;;;;;;4.55;1.20;;;;;;;;;;5010740;28;20371;-68
2022/02/08 14:17:00;;;;;;;4.60;1.40;;;;;;;;;;5010537;28;20050;-69
2022/02/08 14:19:34;;;;;;;4.18;1.33;;;;;;;;;;5033791;22;20045;-61
2022/02/08 14:22:13;;;;;;;4.30;1.63;;;;;;;;;;5030635;28;20133;-63
2022/02/08 14:25:01;;;;;;;3.95;1.85;;;;;;;;;;5031568;28;20053;-62
2022/02/08 14:30:22;;;;;;;3.83;1.20;;;;;;;;;;5030640;28;20057;-61
2022/02/08 14:32:58;;;;;;;5.22;1.70;;;;;;;;;;5031026;28;20134;-61
2022/02/08 14:35:50;;;;;;;6.18;1.38;;;;;;;;;;5031254;28;20132;-62
2022/02/08 14:59:04;;;;;;;3.17;1.13;;;;;;;;;;5126509;28;20053;-62
2022/02/08 15:09:05;;;;;;;2.88;1.20;;;;;;;;;;5126578;28;20393;-61
2022/02/08 15:11:45;;;;;;;4.32;1.20;;;;;;;;;;5128457;27;20496;-61
2022/02/08 15:14:12;;;;;;;3.90;1.10;;;;;;;;;;5127795;27;20112;-62
2022/02/08 15:16:39;;;;;;;8.50;2.10;;;;;;;;;;5127611;27;20162;-62
2022/02/08 15:19:06;;;;;;;5.63;1.33;;;;;;;;;;5126234;28;20043;-62
2022/02/08 15:21:36;;;;;;;4.80;1.20;;;;;;;;;;5128573;27;20138;-63
2022/02/08 15:24:08;;;;;;;4.90;1.30;;;;;;;;;;5128597;28;20063;-62
2022/02/08 15:26:36;;;;;;;5.22;1.20;;;;;;;;;;5127351;28;20518;-62
2022/02/08 15:29:04;;;;;;;6.43;1.75;;;;;;;;;;5125276;28;20048;-62
2022/02/08 15:31:33;;;;;;;4.70;1.35;;;;;;;;;;5127479;28;20477;-62
2022/02/08 15:34:00;;;;;;;5.28;1.75;;;;;;;;;;5127995;28;20051;-62
2022/02/08 15:36:27;;;;;;;4.80;1.20;;;;;;;;;;5127533;27;20051;-62
2022/02/08 15:38:58;;;;;;;3.97;1.10;;;;;;;;;;5125023;28;20055;-62
2022/02/08 15:41:27;;;;;;;5.55;1.27;;;;;;;;;;5128086;27;20504;-62
2022/02/08 15:43:54;;;;;;;3.40;1.35;;;;;;;;;;5127875;27;20489;-62
2022/02/08 15:46:24;;;;;;;3.22;1.55;;;;;;;;;;5127608;28;20051;-62
2022/02/08 15:48:53;;;;;;;6.10;1.57;;;;;;;;;;5124332;28;20054;-63
2022/02/08 15:51:28;;;;;;;6.30;1.45;;;;;;;;;;5126750;28;20295;-62
2022/02/08 15:54:07;;;;;;;6.88;1.70;;;;;;;;;;5127843;27;20494;-62
2022/02/08 15:56:54;;;;;;;3.80;1.30;;;;;;;;;;5127299;27;20050;-62
2022/02/08 16:07:49;;;;;;;4.15;1.33;;;;;;;;;;5114622;28;20700;-62
2022/02/08 16:10:23;;;;;;;7.05;1.45;;;;;;;;;;5114767;28;20059;-63
2022/02/08 16:13:18;;;;;;;5.20;1.33;;;;;;;;;;5115008;28;20051;-61
2022/02/08 16:16:15;;;;;;;7.13;2.65;;;;;;;;;;5082262;28;20048;-63
2022/02/08 16:18:50;;;;;;;5.35;1.70;;;;;;;;;;5114198;28;20067;-61
2022/02/08 16:24:17;;;;;;;5.95;1.90;;;;;;;;;;5095113;28;20046;-61
2022/02/08 16:27:03;;;;;;;15.65;5.53;;;;;;;;;;5113301;28;20069;-61
2022/02/08 16:30:06;;;;;;;4.10;1.35;;;;;;;;;;5113358;28;20047;-62
2022/02/08 16:33:04;;;;;;;3.58;1.35;;;;;;;;;;5110145;28;20047;-62
2022/02/08 16:47:32;;;;;;;4.72;1.70;;;;;;;;;;5110494;28;20532;-61
2022/02/08 16:50:05;;;;;;;6.15;2.00;;;;;;;;;;5114446;28;20404;-60
2022/02/08 16:55:33;;;;;;;6.90;1.70;;;;;;;;;;5114086;27;20370;-61
2022/02/08 16:58:20;;;;;;;3.38;1.58;;;;;;;;;;5113906;28;20048;-62
2022/02/08 17:00:54;;;;;;;4.60;1.80;;;;;;;;;;5112665;28;20422;-64
2022/02/08 17:03:30;;;;;;;6.43;1.85;;;;;;;;;;5114309;28;20051;-65
2022/02/08 17:06:01;;;;;;;5.13;2.10;;;;;;;;;;5110959;28;20827;-61
2022/02/08 17:08:28;;;;;;;3.95;1.60;;;;;;;;;;5112821;28;20073;-62
2022/02/08 17:10:59;;;;;;;5.72;2.00;;;;;;;;;;5111954;28;20082;-60
2022/02/08 17:13:46;;;;;;;6.45;2.75;;;;;;;;;;5111970;28;20410;-61
2022/02/08 17:16:20;;;;;;;6.57;2.40;;;;;;;;;;5112410;28;20055;-61
2022/02/08 17:19:06;;;;;;;7.93;2.72;;;;;;;;;;5112098;28;20062;-62
2022/02/08 17:46:33;;;;;;;8.35;2.75;;;;;;;;;;5108752;28;20050;-63
2022/02/08 17:49:00;;;;;;;8.60;2.67;;;;;;;;;;5111559;28;20043;-62
2022/02/08 17:51:29;;;;;;;9.93;3.58;;;;;;;;;;5110752;28;20572;-60
2022/02/08 17:53:56;;;;;;;7.25;3.40;;;;;;;;;;5111250;28;20086;-62
2022/02/08 17:56:23;;;;;;;10.18;3.78;;;;;;;;;;5110987;28;20050;-62
2022/02/08 17:58:52;;;;;;;8.57;3.63;;;;;;;;;;5110885;28;20045;-61
2022/02/08 18:01:19;;;;;;;11.82;4.10;;;;;;;;;;5111540;28;20048;-61
2022/02/08 18:03:46;;;;;;;9.52;3.95;;;;;;;;;;5111114;28;20051;-62
2022/02/08 18:06:13;;;;;;;9.18;3.55;;;;;;;;;;5111235;28;20128;-62
2022/02/08 18:08:41;;;;;;;10.00;3.85;;;;;;;;;;5104755;28;20054;-62
2022/02/08 18:11:09;;;;;;;9.35;4.20;;;;;;;;;;5103568;28;20048;-62
2022/02/08 18:13:40;;;;;;;9.68;4.00;;;;;;;;;;5110677;28;20083;-62
2022/02/08 18:19:14;;;;;;;8.52;4.63;;;;;;;;;;5048618;28;20481;-60
2022/02/08 18:21:57;;;;;;;10.40;5.13;;;;;;;;;;5086286;28;20059;-59
2022/02/08 18:27:34;;;;;;;11.90;4.15;;;;;;;;;;5078641;28;20355;-62
2022/02/08 19:04:13;;;;;;;8.23;3.00;;;;;;;;;;5107104;28;20789;-62
2022/02/08 19:09:35;;;;;;;10.93;4.50;;;;;;;;;;5041791;28;20419;-63
2022/02/08 19:12:13;;;;;;;10.15;4.57;;;;;;;;;;5089865;28;20051;-60
2022/02/08 19:17:41;;;;;;;12.80;4.82;;;;;;;;;;5076034;28;20055;-66
2022/02/08 19:20:15;;;;;;;10.60;4.70;;;;;;;;;;5090204;28;20131;-64
2022/02/08 19:22:42;;;;;;;7.65;4.88;;;;;;;;;;5090275;28;20508;-65
2022/02/08 19:25:09;;;;;;;11.00;4.88;;;;;;;;;;5090111;28;20052;-59
2022/02/08 19:27:40;;;;;;;16.17;6.00;;;;;;;;;;5090002;28;20131;-60
2022/02/08 19:30:10;;;;;;;22.98;8.02;;;;;;;;;;5090040;28;20098;-64
2022/02/08 19:32:37;;;;;;;40.88;17.00;;;;;;;;;;5090163;28;20052;-62
2022/02/08 19:35:05;;;;;;;37.22;14.65;;;;;;;;;;5090101;28;20059;-61
2022/02/08 19:37:32;;;;;;;22.70;7.88;;;;;;;;;;5090541;28;20067;-63
2022/02/08 19:39:59;;;;;;;19.20;7.90;;;;;;;;;;5093692;28;20485;-63
2022/02/08 19:42:26;;;;;;;15.27;7.25;;;;;;;;;;5093946;28;20519;-60
2022/02/08 19:44:57;;;;;;;15.35;5.85;;;;;;;;;;5094371;28;20055;-60
2022/02/08 19:47:32;;;;;;;16.50;7.80;;;;;;;;;;5093850;28;20048;-59
2022/02/08 19:50:00;;;;;;;12.95;4.90;;;;;;;;;;5093848;28;20083;-58
2022/02/08 19:52:28;;;;;;;11.23;4.60;;;;;;;;;;5093909;28;20143;-60
2022/02/08 19:55:20;;;;;;;8.43;5.20;;;;;;;;;;5093782;28;20430;-60
2022/02/08 19:57:50;;;;;;;12.85;5.20;;;;;;;;;;5093050;28;20060;-60
2022/02/08 20:00:23;;;;;;;12.80;5.63;;;;;;;;;;5093655;28;20056;-58
2022/02/08 20:02:54;;;;;;;9.90;4.63;;;;;;;;;;5093512;28;20291;-59
2022/02/08 20:05:27;;;;;;;9.50;4.85;;;;;;;;;;5111317;28;20123;-61
2022/02/08 20:07:56;;;;;;;13.02;6.25;;;;;;;;;;5113610;28;20408;-60
2022/02/08 20:10:23;;;;;;;12.75;4.38;;;;;;;;;;5113522;28;20131;-60
2022/02/08 20:12:50;;;;;;;13.70;6.05;;;;;;;;;;5113247;27;20043;-60
2022/02/08 20:15:19;;;;;;;11.48;5.95;;;;;;;;;;5112681;28;20556;-58
2022/02/08 20:17:50;;;;;;;12.10;4.75;;;;;;;;;;5110982;28;20089;-60
2022/02/08 20:20:22;;;;;;;14.27;5.78;;;;;;;;;;5113815;28;20516;-60
2022/02/08 20:22:53;;;;;;;11.82;5.28;;;;;;;;;;5113034;28;20039;-60
2022/02/08 20:25:23;;;;;;;12.40;5.93;;;;;;;;;;5113077;28;20078;-60
2022/02/08 20:27:52;;;;;;;13.65;5.40;;;;;;;;;;5113009;28;20135;-60
2022/02/08 20:30:26;;;;;;;12.10;4.57;;;;;;;;;;5113429;28;20058;-59
2022/02/08 20:32:53;;;;;;;13.38;4.95;;;;;;;;;;5110491;28;20040;-60
2022/02/08 20:35:24;;;;;;;11.32;5.07;;;;;;;;;;5112933;28;20051;-60
2022/02/08 20:37:51;;;;;;;9.80;4.15;;;;;;;;;;5113158;28;20397;-60
2022/02/08 20:40:20;;;;;;;8.57;4.60;;;;;;;;;;5112216;28;20131;-60
2022/02/08 20:42:50;;;;;;;8.18;4.45;;;;;;;;;;5112957;28;20081;-59
2022/02/08 20:45:18;;;;;;;12.73;5.53;;;;;;;;;;5092831;28;20062;-60